Iver Agile — IBHW — position and weather

sailwx.info

Track history (hours):
 
Tides and Currents Weather Stations Pressure Air Temp Water Temp Dewpoint Dewpoint Depression Visibility Wind Speed Wind Dir Waves Ship Positions

Iver Agile

Last reported at 2014-Sep-19 07:15 UTC. Time now 2014-Sep-19 07:47 UTC.
Position N 39°57' E 002°49'.

Length 110 m; draft 4.9 m.

Type: Tanker. MMSI: 247103700.

Date/timePositionNaut miles runAvg speedWind from/ knotsBaromVisibWave heightAir tempDewpointWater temp
2014-Sep-19 07:15N 39°57' E 002°49'1214.7
2014-Sep-19 06:24N 39°50' E 002°35'1915.0
2014-Sep-19 05:09N 39°39' E 002°15'12814.5
2014-Sep-18 20:18N 38°18' E 000°07'1114.1
2014-Sep-18 19:30N 38°08' W 000°01'2914.6
2014-Sep-18 17:33N 37°45' W 000°21'1414.4
2014-Sep-18 16:33N 37°33' W 000°31'1414.4
2014-Sep-18 15:33N 37°23' W 000°45'1514.5
2014-Sep-18 14:31N 37°13' W 000°59'22615.1
2014-Sep-17 23:33N 35°58' W 005°24'5 0.1
2014-Sep-16 14:18N 36°00' W 005°29'22212.4
2014-Sep-15 20:21N 37°11' W 001°07'3113.5
2014-Sep-15 18:03N 37°31' W 000°38'813.7
2014-Sep-15 17:29N 37°37' W 000°31'1313.6
2014-Sep-15 16:32N 37°48' W 000°22'1413.6
2014-Sep-15 15:31N 37°60' W 000°12'3113.6
2014-Sep-15 13:14N 38°25' E 000°09'7913.7
2014-Sep-15 07:27N 39°19' E 001°25'2913.8
2014-Sep-15 05:22N 39°35' E 001°56'3113.7
2014-Sep-15 03:06N 39°52' E 002°29'713.5
2014-Sep-15 02:33N 39°56' E 002°37'22613.3
2014-Sep-14 09:32N 42°02' E 006°46'2013.3
2014-Sep-14 08:04N 42°13' E 007°08'14213.5
2014-Sep-13 21:34N 43°30' E 009°51'1313.2
2014-Sep-13 20:33N 43°30' E 010°09'9 9.0
2014-Sep-13 19:33N 43°35' E 010°19'0 0.4
2014-Sep-13 18:19N 43°35' E 010°19'0 0.0
2014-Sep-13 17:31N 43°35' E 010°19'0 0.0
2014-Sep-13 15:25N 43°35' E 010°19'0 0.0
2014-Sep-13 14:31N 43°35' E 010°19'0 0.0
2014-Sep-13 13:28N 43°35' E 010°19'0 0.0
2014-Sep-13 12:31N 43°35' E 010°19'0 0.0
2014-Sep-13 11:28N 43°35' E 010°19'0 0.0
2014-Sep-13 10:28N 43°35' E 010°19'0 0.0
2014-Sep-13 09:31N 43°35' E 010°19'0 0.0
2014-Sep-13 08:28N 43°35' E 010°19'0 0.0
2014-Sep-13 07:31N 43°35' E 010°19'0 0.0
2014-Sep-13 06:25N 43°35' E 010°19'0 0.0
2014-Sep-13 05:28N 43°35' E 010°19'0 0.0
2014-Sep-13 04:25N 43°35' E 010°19'0 0.0
2014-Sep-13 03:19N 43°35' E 010°19'0 0.0
2014-Sep-13 02:31N 43°35' E 010°19'0 0.0
2014-Sep-13 01:31N 43°35' E 010°19'0 0.0
2014-Sep-13 00:31N 43°35' E 010°19'0 0.0
2014-Sep-12 23:31N 43°35' E 010°19'0 0.0
2014-Sep-12 22:31N 43°35' E 010°19'0 0.0
2014-Sep-12 21:28N 43°35' E 010°19'0 0.0
2014-Sep-12 20:31N 43°35' E 010°19'0 0.0
2014-Sep-12 19:28N 43°35' E 010°19'0 0.0
2014-Sep-12 18:13N 43°35' E 010°19'0 0.0
2014-Sep-12 17:25N 43°35' E 010°19'0 0.0
2014-Sep-12 16:19N 43°35' E 010°19'0 0.0
2014-Sep-12 15:31N 43°35' E 010°19'0 0.0
2014-Sep-12 14:25N 43°35' E 010°19'0 0.0
2014-Sep-12 13:31N 43°35' E 010°19'0 0.0
2014-Sep-12 12:31N 43°35' E 010°19'0 0.0
2014-Sep-12 11:31N 43°35' E 010°19'2 2.1
2014-Sep-12 10:33N 43°33' E 010°18'3 2.5
2014-Sep-12 09:31N 43°31' E 010°17'0 0.0
2014-Sep-12 08:31N 43°31' E 010°17'0 0.0
2014-Sep-12 07:31N 43°31' E 010°17'0 0.0
2014-Sep-12 06:31N 43°31' E 010°17'0 0.0
2014-Sep-12 05:31N 43°31' E 010°17'0 0.1
2014-Sep-12 04:31N 43°31' E 010°17'0 0.0
2014-Sep-12 03:31N 43°31' E 010°17'0 0.1
2014-Sep-12 02:31N 43°31' E 010°17'0 0.0
2014-Sep-12 01:31N 43°31' E 010°17'0 0.0
2014-Sep-12 00:28N 43°31' E 010°17'0 0.0
2014-Sep-11 23:31N 43°31' E 010°17'0 0.0
2014-Sep-11 22:31N 43°31' E 010°17'0 0.0
2014-Sep-11 21:31N 43°31' E 010°17'0 0.0
2014-Sep-11 20:31N 43°31' E 010°17'0 0.0
2014-Sep-11 19:28N 43°31' E 010°17'0 0.1
2014-Sep-11 18:31N 43°31' E 010°17'0 0.0
2014-Sep-11 17:31N 43°31' E 010°17'0 0.0
2014-Sep-11 16:28N 43°31' E 010°17'0 0.0
2014-Sep-11 15:31N 43°31' E 010°17'0 0.0
2014-Sep-11 14:31N 43°31' E 010°17'0 0.0
2014-Sep-11 13:31N 43°31' E 010°17'0 0.0
2014-Sep-11 12:31N 43°31' E 010°17'0 0.1
2014-Sep-11 11:31N 43°31' E 010°17'0 0.0
2014-Sep-11 10:31N 43°31' E 010°17'0 0.0
2014-Sep-11 09:31N 43°31' E 010°17'0 0.0
2014-Sep-11 08:31N 43°31' E 010°17'0 0.0
2014-Sep-11 07:31N 43°31' E 010°17'0 0.0
2014-Sep-11 06:31N 43°31' E 010°17'0 0.1
2014-Sep-11 05:31N 43°31' E 010°17'0 0.1
2014-Sep-11 04:31N 43°31' E 010°17'0 0.1
2014-Sep-11 03:31N 43°31' E 010°17'0 0.1
2014-Sep-11 02:31N 43°31' E 010°17'0 0.1
2014-Sep-11 01:28N 43°31' E 010°17'0 0.0
2014-Sep-11 00:31N 43°31' E 010°17'0 0.0
2014-Sep-10 23:31N 43°31' E 010°17'0 0.0
2014-Sep-10 22:31N 43°31' E 010°17'0 0.0
2014-Sep-10 21:28N 43°31' E 010°17'0 0.0
2014-Sep-10 20:31N 43°31' E 010°17'0 0.0
2014-Sep-10 19:31N 43°31' E 010°17'0 0.0
2014-Sep-10 18:31N 43°31' E 010°17'0 0.0
2014-Sep-10 17:28N 43°31' E 010°17'0 0.0
2014-Sep-10 16:31N 43°31' E 010°17'0 0.0
2014-Sep-10 15:31N 43°31' E 010°17'0 0.0
2014-Sep-10 14:31N 43°31' E 010°17'0 0.0
2014-Sep-10 11:04N 43°31' E 010°17'0 0.0
2014-Sep-10 10:16N 43°31' E 010°17'0 0.0
2014-Sep-10 07:31N 43°31' E 010°17'0 0.0
2014-Sep-10 01:31N 43°31' E 010°17'0 0.0
2014-Sep-10 00:31N 43°31' E 010°17'0 0.0
2014-Sep-09 23:31N 43°31' E 010°17'0 0.1
2014-Sep-09 22:31N 43°31' E 010°17'0 0.0
2014-Sep-09 21:31N 43°31' E 010°17'0 0.0
2014-Sep-09 20:31N 43°31' E 010°17'0 0.0
2014-Sep-09 19:31N 43°31' E 010°17'0 0.0
2014-Sep-09 18:31N 43°31' E 010°17'0 0.0
2014-Sep-09 17:31N 43°31' E 010°17'0 0.0
2014-Sep-09 16:31N 43°31' E 010°17'0 0.0
2014-Sep-09 15:31N 43°31' E 010°17'0 0.0
2014-Sep-09 14:28N 43°31' E 010°17'0 0.0
2014-Sep-09 13:31N 43°31' E 010°17'0 0.0
2014-Sep-09 12:31N 43°31' E 010°17'0 0.0
2014-Sep-09 11:31N 43°31' E 010°17'0 0.0
2014-Sep-09 10:31N 43°31' E 010°17'0 0.0
2014-Sep-09 09:28N 43°31' E 010°17'0 0.1
2014-Sep-09 08:31N 43°31' E 010°17'0 0.0
2014-Sep-09 07:31N 43°31' E 010°17'  
Track history (hours):
 
Tides and Currents Weather Stations Pressure Air Temp Water Temp Dewpoint Dewpoint Depression Visibility Wind Speed Wind Dir Waves Ship Positions

Iver Agile

Last reported at 2014-Sep-19 07:15 UTC. Time now 2014-Sep-19 07:47 UTC.
Position N 39°57' E 002°49'.

Length 110 m; draft 4.9 m.

Type: Tanker. MMSI: 247103700.

Date/timePositionNaut miles runAvg speedWind from/ knotsBaromVisibWave heightAir tempDewpointWater temp
2014-Sep-19 07:15N 39°57' E 002°49'1214.7
2014-Sep-19 06:24N 39°50' E 002°35'1915.0
2014-Sep-19 05:09N 39°39' E 002°15'12814.5
2014-Sep-18 20:18N 38°18' E 000°07'1114.1
2014-Sep-18 19:30N 38°08' W 000°01'2914.6
2014-Sep-18 17:33N 37°45' W 000°21'1414.4
2014-Sep-18 16:33N 37°33' W 000°31'1414.4
2014-Sep-18 15:33N 37°23' W 000°45'1514.5
2014-Sep-18 14:31N 37°13' W 000°59'22615.1
2014-Sep-17 23:33N 35°58' W 005°24'5 0.1
2014-Sep-16 14:18N 36°00' W 005°29'22212.4
2014-Sep-15 20:21N 37°11' W 001°07'3113.5
2014-Sep-15 18:03N 37°31' W 000°38'813.7
2014-Sep-15 17:29N 37°37' W 000°31'1313.6
2014-Sep-15 16:32N 37°48' W 000°22'1413.6
2014-Sep-15 15:31N 37°60' W 000°12'3113.6
2014-Sep-15 13:14N 38°25' E 000°09'7913.7
2014-Sep-15 07:27N 39°19' E 001°25'2913.8
2014-Sep-15 05:22N 39°35' E 001°56'3113.7
2014-Sep-15 03:06N 39°52' E 002°29'713.5
2014-Sep-15 02:33N 39°56' E 002°37'22613.3
2014-Sep-14 09:32N 42°02' E 006°46'2013.3
2014-Sep-14 08:04N 42°13' E 007°08'14213.5
2014-Sep-13 21:34N 43°30' E 009°51'1313.2
2014-Sep-13 20:33N 43°30' E 010°09'9 9.0
2014-Sep-13 19:33N 43°35' E 010°19'0 0.4
2014-Sep-13 18:19N 43°35' E 010°19'0 0.0
2014-Sep-13 17:31N 43°35' E 010°19'0 0.0
2014-Sep-13 15:25N 43°35' E 010°19'0 0.0
2014-Sep-13 14:31N 43°35' E 010°19'0 0.0
2014-Sep-13 13:28N 43°35' E 010°19'0 0.0
2014-Sep-13 12:31N 43°35' E 010°19'0 0.0
2014-Sep-13 11:28N 43°35' E 010°19'0 0.0
2014-Sep-13 10:28N 43°35' E 010°19'0 0.0
2014-Sep-13 09:31N 43°35' E 010°19'0 0.0
2014-Sep-13 08:28N 43°35' E 010°19'0 0.0
2014-Sep-13 07:31N 43°35' E 010°19'0 0.0
2014-Sep-13 06:25N 43°35' E 010°19'0 0.0
2014-Sep-13 05:28N 43°35' E 010°19'0 0.0
2014-Sep-13 04:25N 43°35' E 010°19'0 0.0
2014-Sep-13 03:19N 43°35' E 010°19'0 0.0
2014-Sep-13 02:31N 43°35' E 010°19'0 0.0
2014-Sep-13 01:31N 43°35' E 010°19'0 0.0
2014-Sep-13 00:31N 43°35' E 010°19'0 0.0
2014-Sep-12 23:31N 43°35' E 010°19'0 0.0
2014-Sep-12 22:31N 43°35' E 010°19'0 0.0
2014-Sep-12 21:28N 43°35' E 010°19'0 0.0
2014-Sep-12 20:31N 43°35' E 010°19'0 0.0
2014-Sep-12 19:28N 43°35' E 010°19'0 0.0
2014-Sep-12 18:13N 43°35' E 010°19'0 0.0
2014-Sep-12 17:25N 43°35' E 010°19'0 0.0
2014-Sep-12 16:19N 43°35' E 010°19'0 0.0
2014-Sep-12 15:31N 43°35' E 010°19'0 0.0
2014-Sep-12 14:25N 43°35' E 010°19'0 0.0
2014-Sep-12 13:31N 43°35' E 010°19'0 0.0
2014-Sep-12 12:31N 43°35' E 010°19'0 0.0
2014-Sep-12 11:31N 43°35' E 010°19'2 2.1
2014-Sep-12 10:33N 43°33' E 010°18'3 2.5
2014-Sep-12 09:31N 43°31' E 010°17'0 0.0
2014-Sep-12 08:31N 43°31' E 010°17'0 0.0
2014-Sep-12 07:31N 43°31' E 010°17'0 0.0
2014-Sep-12 06:31N 43°31' E 010°17'0 0.0
2014-Sep-12 05:31N 43°31' E 010°17'0 0.1
2014-Sep-12 04:31N 43°31' E 010°17'0 0.0
2014-Sep-12 03:31N 43°31' E 010°17'0 0.1
2014-Sep-12 02:31N 43°31' E 010°17'0 0.0
2014-Sep-12 01:31N 43°31' E 010°17'0 0.0
2014-Sep-12 00:28N 43°31' E 010°17'0 0.0
2014-Sep-11 23:31N 43°31' E 010°17'0 0.0
2014-Sep-11 22:31N 43°31' E 010°17'0 0.0
2014-Sep-11 21:31N 43°31' E 010°17'0 0.0
2014-Sep-11 20:31N 43°31' E 010°17'0 0.0
2014-Sep-11 19:28N 43°31' E 010°17'0 0.1
2014-Sep-11 18:31N 43°31' E 010°17'0 0.0
2014-Sep-11 17:31N 43°31' E 010°17'0 0.0
2014-Sep-11 16:28N 43°31' E 010°17'0 0.0
2014-Sep-11 15:31N 43°31' E 010°17'0 0.0
2014-Sep-11 14:31N 43°31' E 010°17'0 0.0
2014-Sep-11 13:31N 43°31' E 010°17'0 0.0
2014-Sep-11 12:31N 43°31' E 010°17'0 0.1
2014-Sep-11 11:31N 43°31' E 010°17'0 0.0
2014-Sep-11 10:31N 43°31' E 010°17'0 0.0
2014-Sep-11 09:31N 43°31' E 010°17'0 0.0
2014-Sep-11 08:31N 43°31' E 010°17'0 0.0
2014-Sep-11 07:31N 43°31' E 010°17'0 0.0
2014-Sep-11 06:31N 43°31' E 010°17'0 0.1
2014-Sep-11 05:31N 43°31' E 010°17'0 0.1
2014-Sep-11 04:31N 43°31' E 010°17'0 0.1
2014-Sep-11 03:31N 43°31' E 010°17'0 0.1
2014-Sep-11 02:31N 43°31' E 010°17'0 0.1
2014-Sep-11 01:28N 43°31' E 010°17'0 0.0
2014-Sep-11 00:31N 43°31' E 010°17'0 0.0
2014-Sep-10 23:31N 43°31' E 010°17'0 0.0
2014-Sep-10 22:31N 43°31' E 010°17'0 0.0
2014-Sep-10 21:28N 43°31' E 010°17'0 0.0
2014-Sep-10 20:31N 43°31' E 010°17'0 0.0
2014-Sep-10 19:31N 43°31' E 010°17'0 0.0
2014-Sep-10 18:31N 43°31' E 010°17'0 0.0
2014-Sep-10 17:28N 43°31' E 010°17'0 0.0
2014-Sep-10 16:31N 43°31' E 010°17'0 0.0
2014-Sep-10 15:31N 43°31' E 010°17'0 0.0
2014-Sep-10 14:31N 43°31' E 010°17'0 0.0
2014-Sep-10 11:04N 43°31' E 010°17'0 0.0
2014-Sep-10 10:16N 43°31' E 010°17'0 0.0
2014-Sep-10 07:31N 43°31' E 010°17'0 0.0
2014-Sep-10 01:31N 43°31' E 010°17'0 0.0
2014-Sep-10 00:31N 43°31' E 010°17'0 0.0
2014-Sep-09 23:31N 43°31' E 010°17'0 0.1
2014-Sep-09 22:31N 43°31' E 010°17'0 0.0
2014-Sep-09 21:31N 43°31' E 010°17'0 0.0
2014-Sep-09 20:31N 43°31' E 010°17'0 0.0
2014-Sep-09 19:31N 43°31' E 010°17'0 0.0
2014-Sep-09 18:31N 43°31' E 010°17'0 0.0
2014-Sep-09 17:31N 43°31' E 010°17'0 0.0
2014-Sep-09 16:31N 43°31' E 010°17'0 0.0
2014-Sep-09 15:31N 43°31' E 010°17'0 0.0
2014-Sep-09 14:28N 43°31' E 010°17'0 0.0
2014-Sep-09 13:31N 43°31' E 010°17'0 0.0
2014-Sep-09 12:31N 43°31' E 010°17'0 0.0
2014-Sep-09 11:31N 43°31' E 010°17'0 0.0
2014-Sep-09 10:31N 43°31' E 010°17'0 0.0
2014-Sep-09 09:28N 43°31' E 010°17'0 0.1
2014-Sep-09 08:31N 43°31' E 010°17'0 0.0
2014-Sep-09 07:31N 43°31' E 010°17'  

Dump ship's entire track history